Aérodrome :
LOGIN :

S'inscrire | Disclaimer

   EN    FR    IT 

 










Légende :    VFR   VFR Marginal   IFR   IFR Intensif   IFR Très Intensif
Visi : 
Plafond : 
>= 8 km
>= 3000ft
5 à 8 km
1000 à 3000 ft
1500m à 5 km
500 à 1000 ft
800 à 1500m
200 à 500 ft
< 800m
< 200 ft
Symboles :   Orages  Brouillard  Fortes neiges  Fortes précipitations  Vent > 20 kt
SIGMETs :   Divers  Orages  Givrage  Turbulence  Onde Orograph.  Cendres Volcan.







- Altitude de l'aérodrome : 20 ft


EBFN - Koksijde

DERNIER METAR :
  • 222155Z AUTO 17008KT 1400 BR OVC003/// 01/00 Q0998 AMB

METARs EXPIRÉS :
  • 222145Z AUTO 17008KT 1800 -RASN OVC003/// 01/00 Q0998 YLO
  • 222125Z AUTO 18008KT 1500 BR OVC003/// 00/00 Q0998 AMB
  • 222055Z AUTO 18007KT 1300 BR OVC002/// 00/00 Q0998 AMB
  • 222025Z AUTO 18007KT 1000 BR OVC002/// 00/00 Q0999 AMB
  • 222013Z AUTO 17009KT 0900 FG OVC002/// 00/00 Q0999 AMB
  • 221955Z AUTO 17010KT 0600 FG OVC002/// 00/00 Q0999 RED
  • 221925Z AUTO 18008KT 0650 FG OVC002/// 00/00 Q0999 RED

TAF TAF EBFN
Valide du 22 à 19h jusqu'au 23 à 07h UTC


221541Z 2219/2307 17006KT 4000 BR FEW020
TEMPO 2219/2223 3000 -SHSNRA SCT014
BECMG 2223/2301 20816KT 1000 FG BKN002
TEMPO 2300/2307 0500 SN BKN001
Pas de NOTAMs connus pour ce terrain.



MET'MAP, la Météo Aéronautique d'un coup d'oeil ! - Copyright ORBIFLY Décembre 2007 - Disclaimer

ORBIFLY MET'MAP TEAM :

Programmation & Développement : Alexandra Zaïnal
Conception & Développement : Baudouin d'Aumeries
Co-Programmation & Développement : Marc-Olivier Méhu
Soutien technique & logistique : Manuel Goepfert

Contact : metmap@orbifly.com




SOURCES & CREDITS :

   NOAA